Time;durP1;ratioP1;P1;durP2;ratioP2;P2;SDS_P1;SDS_P2;PMS_P1;PMS_P2;Temp;Humidity;BMP_temperature;BMP_pressure;BME280_temperature;BME280_humidity;BME280_pressure;Samples;Min_cycle;Max_cycle;Signal;HPM_P1;HPM_P2
2023/04/05 00:00:43;;;;;;;5.40;4.90;;;;;19.60;101290.00;;;;2094708;28;20220;-69
2023/04/05 00:01:48;;;;;;;7.23;5.27;;;;;19.60;101286.00;;;;2094361;28;20329;-70
2023/04/05 00:02:49;;;;;;;6.38;5.68;;;;;19.60;101289.00;;;;2095518;28;20645;-68
2023/04/05 00:03:50;;;;;;;6.40;4.83;;;;;19.60;101287.00;;;;2094946;28;20197;-69
2023/04/05 00:04:53;;;;;;;8.13;4.93;;;;;19.60;101285.00;;;;2096324;28;20216;-69
2023/04/05 00:05:53;;;;;;;5.75;4.82;;;;;19.50;101278.00;;;;2095160;28;20235;-69
2023/04/05 00:06:54;;;;;;;5.73;4.60;;;;;19.50;101281.00;;;;2093500;28;21155;-69
2023/04/05 00:08:07;;;;;;;6.60;4.70;;;;;19.50;101289.00;;;;2093635;28;20572;-69
2023/04/05 00:09:07;;;;;;;6.00;4.70;;;;;19.60;101289.00;;;;2099434;28;20265;-69
2023/04/05 00:10:08;;;;;;;6.10;4.57;;;;;19.50;101263.00;;;;2095035;28;20208;-68
2023/04/05 00:11:08;;;;;;;6.10;4.97;;;;;19.50;101275.00;;;;2095021;28;20215;-71
2023/04/05 00:12:09;;;;;;;5.60;4.50;;;;;19.50;101277.00;;;;2095711;28;20211;-69
2023/04/05 00:13:09;;;;;;;6.23;5.00;;;;;19.50;101257.00;;;;2094584;28;20699;-68
2023/04/05 00:14:10;;;;;;;5.13;4.63;;;;;19.50;101290.00;;;;2095468;28;20251;-68
2023/04/05 00:15:10;;;;;;;5.20;4.70;;;;;19.50;101257.00;;;;2095376;28;20204;-69
2023/04/05 00:16:10;;;;;;;5.63;4.60;;;;;19.50;101266.00;;;;2096284;28;20261;-69
2023/04/05 00:17:12;;;;;;;7.20;4.93;;;;;19.50;101279.00;;;;2096177;28;20220;-69
2023/04/05 00:18:20;;;;;;;4.93;4.43;;;;;19.50;101278.00;;;;2094688;28;20208;-69
2023/04/05 00:19:22;;;;;;;5.30;4.50;;;;;19.50;101279.00;;;;2095533;28;20209;-69
2023/04/05 00:20:22;;;;;;;5.68;4.75;;;;;19.50;101277.00;;;;2095419;28;20204;-69
2023/04/05 00:21:23;;;;;;;5.23;4.73;;;;;19.50;101273.00;;;;2095257;28;20242;-69
2023/04/05 00:22:24;;;;;;;5.50;5.00;;;;;19.50;101277.00;;;;2094593;28;20224;-69
2023/04/05 00:23:25;;;;;;;5.47;4.90;;;;;19.50;101267.00;;;;2096078;28;21086;-69
2023/04/05 00:24:28;;;;;;;4.82;4.32;;;;;19.50;101283.00;;;;2095503;28;20610;-69
2023/04/05 00:25:28;;;;;;;5.40;4.55;;;;;19.50;101274.00;;;;2095499;28;20249;-69
2023/04/05 00:26:28;;;;;;;6.27;4.90;;;;;19.50;101276.00;;;;2096236;28;20219;-69
2023/04/05 00:27:29;;;;;;;5.20;4.63;;;;;19.50;101278.00;;;;2094770;28;20220;-69
2023/04/05 00:28:29;;;;;;;5.33;4.70;;;;;19.50;101283.00;;;;2095981;28;20216;-69
2023/04/05 00:29:30;;;;;;;6.07;4.43;;;;;19.40;101285.00;;;;2095279;28;20232;-69
2023/04/05 00:30:30;;;;;;;4.70;4.17;;;;;19.40;101269.00;;;;2096057;28;20277;-68
2023/04/05 00:31:31;;;;;;;4.73;4.03;;;;;19.40;101285.00;;;;2095224;28;20245;-69
2023/04/05 00:32:31;;;;;;;5.10;4.53;;;;;19.50;101293.00;;;;2094698;28;20274;-69
2023/04/05 00:33:31;;;;;;;4.77;4.33;;;;;19.50;101279.00;;;;2096122;28;20212;-69
2023/04/05 00:34:32;;;;;;;5.17;4.20;;;;;19.50;101275.00;;;;2095863;28;20667;-69
2023/04/05 00:35:32;;;;;;;6.10;4.47;;;;;19.40;101273.00;;;;2096153;28;20212;-69
2023/04/05 00:36:33;;;;;;;5.00;4.50;;;;;19.40;101272.00;;;;2095362;28;20675;-68
2023/04/05 00:37:33;;;;;;;4.90;4.50;;;;;19.40;101281.00;;;;2095684;28;20220;-69
2023/04/05 00:38:33;;;;;;;5.60;4.30;;;;;19.40;101271.00;;;;2095374;28;20269;-69
2023/04/05 00:39:34;;;;;;;4.93;3.87;;;;;19.40;101276.00;;;;2095502;28;20216;-69
2023/04/05 00:40:35;;;;;;;6.87;4.50;;;;;19.40;101287.00;;;;2095366;28;20281;-68
2023/04/05 00:41:35;;;;;;;4.85;4.35;;;;;19.40;101249.00;;;;2094262;28;20223;-68
2023/04/05 00:42:35;;;;;;;4.63;4.23;;;;;19.40;101269.00;;;;2096048;28;20254;-68
2023/04/05 00:43:36;;;;;;;4.90;4.20;;;;;19.40;101269.00;;;;2095739;28;20218;-67
2023/04/05 00:44:37;;;;;;;5.43;3.70;;;;;19.40;101264.00;;;;2101702;28;20220;-67
2023/04/05 00:45:37;;;;;;;4.50;4.10;;;;;19.40;101270.00;;;;2095798;28;20223;-68
2023/04/05 00:46:37;;;;;;;5.60;4.13;;;;;19.40;101263.00;;;;2095169;28;20703;-69
2023/04/05 00:47:37;;;;;;;5.00;4.50;;;;;19.40;101259.00;;;;2095358;28;20216;-69
2023/04/05 00:48:38;;;;;;;4.10;3.70;;;;;19.40;101266.00;;;;2094647;28;20219;-68
2023/04/05 00:49:38;;;;;;;5.03;4.10;;;;;19.40;101257.00;;;;2095400;28;20488;-69
2023/04/05 00:50:40;;;;;;;4.33;3.93;;;;;19.40;101256.00;;;;2078459;28;20232;-70
2023/04/05 00:51:41;;;;;;;4.45;3.97;;;;;19.40;101257.00;;;;2078964;28;20309;-69
2023/04/05 00:52:41;;;;;;;4.23;3.83;;;;;19.40;101254.00;;;;2087156;28;20213;-68
2023/04/05 00:53:43;;;;;;;4.87;4.13;;;;;19.40;101248.00;;;;2094518;28;20461;-69
2023/04/05 00:54:43;;;;;;;6.40;4.10;;;;;19.40;101252.00;;;;2095283;28;20242;-69
2023/04/05 00:55:46;;;;;;;5.57;4.43;;;;;19.40;101249.00;;;;2097852;28;20208;-69
2023/04/05 00:56:47;;;;;;;4.40;3.60;;;;;19.40;101253.00;;;;2095261;28;20207;-69
2023/04/05 00:57:48;;;;;;;5.47;3.97;;;;;19.40;101251.00;;;;2094495;28;20695;-69
2023/04/05 00:58:50;;;;;;;4.60;4.20;;;;;19.40;101258.00;;;;2095141;28;20205;-68
2023/04/05 00:59:51;;;;;;;4.60;3.70;;;;;19.40;101255.00;;;;2095472;28;20683;-69
2023/04/05 01:00:52;;;;;;;4.77;3.93;;;;;19.30;101257.00;;;;2095417;28;20224;-69
2023/04/05 01:01:55;;;;;;;4.03;3.72;;;;;19.30;101254.00;;;;2095677;28;20212;-69
2023/04/05 01:03:00;;;;;;;4.63;4.20;;;;;19.30;101250.00;;;;2093930;28;20212;-69
2023/04/05 01:04:01;;;;;;;4.45;4.05;;;;;19.30;101250.00;;;;2095366;28;20212;-69
2023/04/05 01:05:04;;;;;;;4.43;4.03;;;;;19.30;101259.00;;;;2094308;28;20204;-69
2023/04/05 01:06:31;;;;;;;5.57;4.18;;;;;19.30;101250.00;;;;2086743;28;20407;-68
2023/04/05 01:07:55;;;;;;;3.85;3.45;;;;;19.30;101245.00;;;;2093327;28;20734;-68
2023/04/05 01:09:13;;;;;;;4.88;4.10;;;;;19.30;101259.00;;;;2061425;28;20213;-69
2023/04/05 01:10:14;;;;;;;4.50;4.10;;;;;19.30;101222.00;;;;2091159;28;20209;-69
2023/04/05 01:11:14;;;;;;;4.70;4.00;;;;;19.30;101266.00;;;;2086550;28;20289;-69
2023/04/05 01:12:18;;;;;;;4.00;3.60;;;;;19.40;101266.00;;;;2077400;28;20220;-69
2023/04/05 01:13:18;;;;;;;4.57;3.97;;;;;19.30;101262.00;;;;2079528;28;20213;-69
2023/04/05 01:14:19;;;;;;;4.90;3.90;;;;;19.30;101248.00;;;;2094102;28;20218;-69
2023/04/05 01:15:19;;;;;;;5.10;3.47;;;;;19.30;101259.00;;;;2095190;28;20212;-69
2023/04/05 01:16:20;;;;;;;5.80;4.10;;;;;19.30;101263.00;;;;2094491;28;20316;-69
2023/04/05 01:17:27;;;;;;;3.50;3.20;;;;;19.20;101259.00;;;;2095159;28;20225;-69
2023/04/05 01:18:29;;;;;;;5.30;4.10;;;;;19.20;101265.00;;;;2095180;28;20212;-69
2023/04/05 01:19:30;;;;;;;5.15;3.90;;;;;19.30;101257.00;;;;2097175;28;20791;-68
2023/04/05 01:20:33;;;;;;;4.97;3.90;;;;;19.20;101256.00;;;;2096090;28;20238;-68
2023/04/05 01:21:33;;;;;;;6.25;3.50;;;;;19.20;101255.00;;;;2095519;28;20238;-68
2023/04/05 01:22:42;;;;;;;4.03;3.63;;;;;19.30;101252.00;;;;2096566;28;20263;-68
2023/04/05 01:23:46;;;;;;;4.72;3.67;;;;;19.20;101253.00;;;;2096568;28;20216;-69
2023/04/05 01:25:01;;;;;;;4.45;3.70;;;;;19.20;101251.00;;;;2097169;28;20246;-69
2023/04/05 01:26:06;;;;;;;5.75;4.55;;;;;19.20;101246.00;;;;2099189;28;20207;-69
2023/04/05 01:27:10;;;;;;;4.60;3.97;;;;;19.20;101244.00;;;;2092292;28;20209;-69
2023/04/05 01:28:32;;;;;;;4.25;3.80;;;;;19.30;101243.00;;;;2087805;28;20299;-68
2023/04/05 01:29:45;;;;;;;4.50;4.10;;;;;19.20;101237.00;;;;2096831;28;20212;-69
2023/04/05 01:30:48;;;;;;;3.55;3.25;;;;;19.20;101241.00;;;;2096092;28;20208;-69
2023/04/05 01:31:50;;;;;;;4.20;3.80;;;;;19.20;101215.00;;;;2099694;28;20231;-68
2023/04/05 01:33:09;;;;;;;4.90;3.80;;;;;19.20;101240.00;;;;2097360;28;20260;-68
2023/04/05 01:34:09;;;;;;;5.03;4.00;;;;;19.20;101237.00;;;;2096712;28;20204;-71
2023/04/05 01:35:12;;;;;;;4.10;3.60;;;;;19.20;101234.00;;;;2096613;28;20258;-70
2023/04/05 01:36:15;;;;;;;3.85;3.55;;;;;19.20;101231.00;;;;2097146;28;20205;-69
2023/04/05 01:37:17;;;;;;;4.82;3.92;;;;;19.20;101240.00;;;;2096419;28;20227;-68
2023/04/05 01:38:20;;;;;;;3.65;3.17;;;;;19.20;101239.00;;;;2099007;28;20232;-68
2023/04/05 01:39:21;;;;;;;4.03;3.63;;;;;19.20;101229.00;;;;2088032;28;20212;-69
2023/04/05 01:40:21;;;;;;;4.80;3.80;;;;;19.20;101232.00;;;;2071604;28;20209;-69
2023/04/05 01:41:22;;;;;;;6.63;3.73;;;;;19.20;101233.00;;;;2080066;28;20216;-68
2023/04/05 01:42:24;;;;;;;3.93;3.33;;;;;19.20;101223.00;;;;2087724;28;20205;-68
2023/04/05 01:43:24;;;;;;;4.25;3.85;;;;;19.20;101236.00;;;;2081814;28;20693;-69
2023/04/05 01:44:25;;;;;;;5.23;3.33;;;;;19.20;101235.00;;;;2087536;28;20213;-69
2023/04/05 01:45:25;;;;;;;4.70;4.20;;;;;19.20;101231.00;;;;2097233;28;20201;-69
2023/04/05 01:46:26;;;;;;;4.63;3.90;;;;;19.20;101133.00;;;;2096379;28;20223;-68
2023/04/05 01:47:26;;;;;;;3.83;3.43;;;;;19.20;101227.00;;;;2095509;28;20223;-68
2023/04/05 01:48:26;;;;;;;5.73;4.00;;;;;19.20;101228.00;;;;2097242;28;20219;-69
2023/04/05 01:49:27;;;;;;;4.10;3.70;;;;;19.20;101229.00;;;;2096432;28;20216;-68
2023/04/05 01:50:27;;;;;;;4.17;3.57;;;;;19.20;101223.00;;;;2097262;28;20228;-68
2023/04/05 01:51:27;;;;;;;4.03;3.63;;;;;19.20;101238.00;;;;2096142;28;20717;-69
2023/04/05 01:52:27;;;;;;;3.90;3.40;;;;;19.20;101208.00;;;;2096239;28;20695;-68
2023/04/05 01:53:28;;;;;;;4.23;3.80;;;;;19.20;101229.00;;;;2096400;28;20713;-68
2023/04/05 01:54:29;;;;;;;4.50;3.60;;;;;19.20;101232.00;;;;2095609;28;20224;-69
2023/04/05 01:55:29;;;;;;;5.80;4.30;;;;;19.20;101222.00;;;;2096648;28;20294;-69
2023/04/05 01:56:30;;;;;;;5.13;3.87;;;;;19.10;101230.00;;;;2097225;28;20212;-68
2023/04/05 01:57:30;;;;;;;4.03;3.73;;;;;19.10;101235.00;;;;2097162;28;20224;-68
2023/04/05 01:58:30;;;;;;;4.23;3.60;;;;;19.10;101216.00;;;;2096001;28;20645;-68
2023/04/05 01:59:31;;;;;;;4.87;3.97;;;;;19.10;101220.00;;;;2097250;28;20212;-68
2023/04/05 02:00:31;;;;;;;4.27;3.83;;;;;19.10;101190.00;;;;2096330;28;20221;-68
2023/04/05 02:01:32;;;;;;;4.10;3.50;;;;;19.10;101220.00;;;;2095126;28;20272;-68
2023/04/05 02:02:32;;;;;;;4.53;3.53;;;;;19.10;101216.00;;;;2096419;28;20212;-69
2023/04/05 02:03:32;;;;;;;3.77;3.47;;;;;19.10;101215.00;;;;2096400;28;20216;-68
2023/04/05 02:04:33;;;;;;;3.97;3.67;;;;;19.10;101200.00;;;;2096978;28;20261;-69
2023/04/05 02:05:33;;;;;;;4.37;3.37;;;;;19.10;101222.00;;;;2095512;28;20227;-68
2023/04/05 02:06:33;;;;;;;3.40;3.10;;;;;19.10;101219.00;;;;2096425;28;20687;-69
2023/04/05 02:07:34;;;;;;;4.67;3.50;;;;;19.10;101222.00;;;;2094348;28;20219;-68
2023/04/05 02:08:34;;;;;;;4.07;3.67;;;;;19.10;101220.00;;;;2102335;28;20222;-69
2023/04/05 02:09:34;;;;;;;3.83;3.53;;;;;19.10;101221.00;;;;2097252;28;20212;-68
2023/04/05 02:10:35;;;;;;;4.57;3.40;;;;;19.10;101216.00;;;;2095826;28;20675;-68
2023/04/05 02:11:35;;;;;;;3.83;3.47;;;;;19.10;101214.00;;;;2096941;28;20212;-69
2023/04/05 02:12:35;;;;;;;3.70;3.33;;;;;19.10;101217.00;;;;2096317;28;20239;-69
2023/04/05 02:13:36;;;;;;;4.17;3.77;;;;;19.10;101216.00;;;;2096972;28;20235;-69
2023/04/05 02:14:36;;;;;;;4.27;3.10;;;;;19.10;101221.00;;;;2097068;28;20282;-68
2023/04/05 02:15:36;;;;;;;4.97;3.60;;;;;19.10;101214.00;;;;2095471;28;20215;-68
2023/04/05 02:16:37;;;;;;;3.93;3.43;;;;;19.10;101211.00;;;;2096436;28;20221;-68
2023/04/05 02:17:44;;;;;;;4.07;3.67;;;;;19.10;101221.00;;;;2097325;28;20216;-68
2023/04/05 02:18:49;;;;;;;4.20;3.60;;;;;19.10;101218.00;;;;2096897;28;20212;-69
2023/04/05 02:19:51;;;;;;;4.18;3.78;;;;;19.00;101196.00;;;;2098590;28;20218;-68
2023/04/05 02:20:52;;;;;;;4.03;3.60;;;;;19.10;101206.00;;;;2096942;28;20204;-68
2023/04/05 02:21:55;;;;;;;4.33;3.90;;;;;19.10;101207.00;;;;2095298;28;20662;-68
2023/04/05 02:22:57;;;;;;;5.05;3.30;;;;;19.00;101208.00;;;;2096939;28;20223;-68
2023/04/05 02:23:57;;;;;;;3.95;3.35;;;;;19.00;101207.00;;;;2096969;28;20755;-68
2023/04/05 02:24:57;;;;;;;3.53;3.20;;;;;19.10;101209.00;;;;2101191;28;20267;-68
2023/04/05 02:25:58;;;;;;;3.53;3.20;;;;;19.00;101209.00;;;;2097040;28;20200;-69
2023/04/05 02:26:58;;;;;;;4.30;3.33;;;;;19.00;101210.00;;;;2096120;28;20273;-68
2023/04/05 02:27:58;;;;;;;3.80;3.13;;;;;19.00;101207.00;;;;2097104;28;20215;-68
2023/04/05 02:28:59;;;;;;;5.30;3.90;;;;;19.00;101204.00;;;;2096137;28;20227;-68
2023/04/05 02:29:59;;;;;;;4.23;3.50;;;;;19.00;101210.00;;;;2096982;28;20239;-68
2023/04/05 02:30:59;;;;;;;4.20;3.80;;;;;19.00;101209.00;;;;2097013;28;20301;-68
2023/04/05 02:32:00;;;;;;;3.27;2.97;;;;;19.00;101208.00;;;;2095467;28;20557;-68
2023/04/05 02:33:00;;;;;;;5.47;3.40;;;;;19.00;101201.00;;;;2096996;28;20571;-69
2023/04/05 02:34:01;;;;;;;3.53;3.20;;;;;19.00;101194.00;;;;2099453;28;20646;-68
2023/04/05 02:35:01;;;;;;;4.30;3.50;;;;;19.00;101197.00;;;;2101062;28;20207;-68
2023/04/05 02:36:05;;;;;;;4.40;3.90;;;;;19.00;101190.00;;;;2096004;28;20212;-68
2023/04/05 02:37:06;;;;;;;5.13;3.55;;;;;19.00;101203.00;;;;2096616;28;20683;-69
2023/04/05 02:38:06;;;;;;;3.63;3.33;;;;;19.00;101199.00;;;;2096554;28;20216;-68
2023/04/05 02:39:06;;;;;;;3.70;3.40;;;;;19.00;101197.00;;;;2096169;28;20325;-69
2023/04/05 02:40:10;;;;;;;4.00;3.53;;;;;19.00;101204.00;;;;2096643;28;20260;-69
2023/04/05 02:41:11;;;;;;;3.50;3.20;;;;;19.00;101201.00;;;;2092478;28;20288;-68
2023/04/05 02:42:11;;;;;;;5.10;3.83;;;;;19.00;101202.00;;;;2087547;28;20205;-69
2023/04/05 02:43:11;;;;;;;3.57;3.27;;;;;19.00;101201.00;;;;2088334;28;20233;-69
2023/04/05 02:44:12;;;;;;;4.00;3.60;;;;;19.00;101194.00;;;;2097211;28;20200;-69
2023/04/05 02:45:12;;;;;;;3.43;3.10;;;;;19.00;101199.00;;;;2087590;28;20259;-69
2023/04/05 02:46:12;;;;;;;3.63;3.33;;;;;19.00;101196.00;;;;2087399;28;20232;-68
2023/04/05 02:47:20;;;;;;;3.63;3.30;;;;;19.00;101202.00;;;;2096876;28;20208;-69
2023/04/05 02:48:20;;;;;;;4.03;3.53;;;;;19.00;101207.00;;;;2096106;28;20588;-69
2023/04/05 02:49:20;;;;;;;3.47;3.17;;;;;18.90;101194.00;;;;2096781;28;20250;-68
2023/04/05 02:50:22;;;;;;;4.30;3.70;;;;;18.90;101200.00;;;;2095527;28;21142;-68
2023/04/05 02:51:22;;;;;;;3.92;3.42;;;;;19.00;101194.00;;;;2096192;28;20250;-68
2023/04/05 02:52:23;;;;;;;4.17;3.40;;;;;19.00;101205.00;;;;2095525;28;20322;-68
2023/04/05 02:53:23;;;;;;;3.87;3.47;;;;;19.00;101192.00;;;;2095979;28;20215;-68
2023/04/05 02:54:23;;;;;;;3.50;3.20;;;;;19.00;101201.00;;;;2095697;28;20215;-69
2023/04/05 02:55:24;;;;;;;5.27;3.73;;;;;19.00;101196.00;;;;2095743;28;20211;-69
2023/04/05 02:56:25;;;;;;;3.83;3.43;;;;;18.90;101197.00;;;;2096703;28;20235;-69
2023/04/05 02:57:25;;;;;;;3.53;3.20;;;;;18.90;101198.00;;;;2095936;28;20520;-69
2023/04/05 02:58:25;;;;;;;4.20;3.60;;;;;19.00;101198.00;;;;2096674;28;20303;-69
2023/04/05 02:59:26;;;;;;;4.80;4.03;;;;;18.90;101196.00;;;;2095956;28;20219;-68
2023/04/05 03:00:27;;;;;;;4.53;3.30;;;;;18.90;101167.00;;;;2095841;28;20220;-68
2023/04/05 03:01:27;;;;;;;3.50;3.20;;;;;19.00;101205.00;;;;2090869;28;20269;-68
2023/04/05 03:02:27;;;;;;;3.47;3.00;;;;;18.90;101217.00;;;;2095036;28;20200;-68
2023/04/05 03:03:28;;;;;;;3.70;3.37;;;;;18.90;101204.00;;;;2096323;28;20695;-68
2023/04/05 03:04:28;;;;;;;3.90;3.60;;;;;18.90;101198.00;;;;2095920;28;20208;-68
2023/04/05 03:05:29;;;;;;;4.20;3.37;;;;;18.90;101207.00;;;;2096599;28;20307;-68
2023/04/05 03:06:30;;;;;;;3.93;3.63;;;;;18.90;101204.00;;;;2095508;28;22732;-69
2023/04/05 03:07:32;;;;;;;4.25;3.45;;;;;18.90;101207.00;;;;2096496;28;20220;-69
2023/04/05 03:08:32;;;;;;;3.90;3.08;;;;;19.00;101207.00;;;;2096571;28;20212;-68
2023/04/05 03:09:32;;;;;;;4.13;3.73;;;;;18.90;101211.00;;;;2099996;28;20215;-68
2023/04/05 03:10:35;;;;;;;4.03;3.63;;;;;18.90;101207.00;;;;2096471;28;20215;-69
2023/04/05 03:11:35;;;;;;;3.92;3.53;;;;;18.90;101106.00;;;;2095352;28;20228;-69
2023/04/05 03:12:36;;;;;;;4.13;3.73;;;;;18.90;101197.00;;;;2095898;28;20303;-68
2023/04/05 03:13:36;;;;;;;3.67;3.37;;;;;18.90;101203.00;;;;2095614;28;20621;-68
2023/04/05 03:14:37;;;;;;;3.63;3.30;;;;;18.90;101200.00;;;;2096841;28;20583;-68
2023/04/05 03:15:37;;;;;;;4.00;3.60;;;;;18.90;101180.00;;;;2096590;28;20216;-69
2023/04/05 03:16:38;;;;;;;4.63;3.57;;;;;18.90;101182.00;;;;2094915;28;20208;-69
2023/04/05 03:17:38;;;;;;;3.87;3.50;;;;;18.90;101164.00;;;;2087381;28;20303;-69
2023/04/05 03:18:39;;;;;;;4.43;3.77;;;;;18.90;101193.00;;;;2078632;28;20233;-69
2023/04/05 03:19:39;;;;;;;4.10;3.80;;;;;18.90;101187.00;;;;2087652;28;20642;-69
2023/04/05 03:20:40;;;;;;;3.73;3.37;;;;;18.90;101195.00;;;;2079079;28;20263;-68
2023/04/05 03:21:41;;;;;;;3.50;3.20;;;;;18.90;101193.00;;;;2086824;28;20212;-71
2023/04/05 03:22:41;;;;;;;4.20;3.50;;;;;18.90;101188.00;;;;2096434;28;20511;-68
2023/04/05 03:23:42;;;;;;;4.27;3.30;;;;;18.90;101179.00;;;;2095195;28;20951;-68
2023/04/05 03:24:42;;;;;;;4.37;3.87;;;;;18.80;101195.00;;;;2095774;28;20215;-68
2023/04/05 03:25:43;;;;;;;3.70;3.40;;;;;18.90;101196.00;;;;2094918;28;20240;-69
2023/04/05 03:26:44;;;;;;;3.72;3.42;;;;;18.90;101192.00;;;;2096348;28;20230;-68
2023/04/05 03:27:45;;;;;;;4.10;3.60;;;;;18.90;101194.00;;;;2095734;28;20207;-69
2023/04/05 03:28:45;;;;;;;4.23;3.47;;;;;18.80;101194.00;;;;2096011;28;20233;-69
2023/04/05 03:29:46;;;;;;;4.70;3.50;;;;;18.80;101192.00;;;;2096343;28;20239;-68
2023/04/05 03:30:46;;;;;;;3.97;3.40;;;;;18.80;101202.00;;;;2095688;28;20265;-68
2023/04/05 03:31:48;;;;;;;3.87;3.57;;;;;18.90;101188.00;;;;2096047;28;20221;-68
2023/04/05 03:32:48;;;;;;;3.92;3.50;;;;;18.80;101184.00;;;;2099611;28;20276;-68
2023/04/05 03:33:49;;;;;;;4.33;3.73;;;;;18.80;101171.00;;;;2096277;28;20655;-69
2023/04/05 03:34:50;;;;;;;5.10;4.07;;;;;18.80;101184.00;;;;2095300;28;20254;-69
2023/04/05 03:35:50;;;;;;;4.55;3.90;;;;;18.80;101192.00;;;;2096212;28;20686;-68
2023/04/05 03:36:51;;;;;;;4.13;3.70;;;;;18.80;101188.00;;;;2095457;28;20212;-68
2023/04/05 03:37:51;;;;;;;3.67;3.37;;;;;18.80;101181.00;;;;2094731;28;20226;-68
2023/04/05 03:38:51;;;;;;;4.10;3.70;;;;;18.60;101182.00;;;;2096093;28;20257;-68
2023/04/05 03:39:52;;;;;;;4.13;3.70;;;;;18.80;101187.00;;;;2095466;28;20214;-68
2023/04/05 03:40:52;;;;;;;4.30;3.90;;;;;18.80;101164.00;;;;2095562;28;20680;-68
2023/04/05 03:41:53;;;;;;;4.53;3.77;;;;;18.80;101178.00;;;;2094438;28;21911;-68
2023/04/05 03:42:53;;;;;;;3.90;3.50;;;;;18.80;101178.00;;;;2096259;28;20247;-68
2023/04/05 03:43:54;;;;;;;4.13;3.73;;;;;18.80;101179.00;;;;2095253;28;20219;-68
2023/04/05 03:44:54;;;;;;;4.43;3.90;;;;;18.80;101167.00;;;;2097713;28;20212;-68
2023/04/05 03:45:54;;;;;;;4.23;3.63;;;;;18.80;101181.00;;;;2096164;28;20257;-68
2023/04/05 03:46:55;;;;;;;4.37;3.97;;;;;18.80;101184.00;;;;2094641;28;20218;-69
2023/04/05 03:47:56;;;;;;;4.67;3.30;;;;;18.80;101181.00;;;;2095766;28;20208;-68
2023/04/05 03:48:58;;;;;;;5.05;3.88;;;;;18.80;101181.00;;;;2078337;28;20213;-68
2023/04/05 03:50:01;;;;;;;7.75;3.47;;;;;18.80;101180.00;;;;2079553;28;20205;-68
2023/04/05 03:51:01;;;;;;;4.70;3.70;;;;;18.80;101175.00;;;;2095552;28;20204;-68
2023/04/05 03:52:02;;;;;;;4.93;3.63;;;;;18.80;101182.00;;;;2097246;28;20219;-69
2023/04/05 03:53:02;;;;;;;4.17;3.53;;;;;18.80;101191.00;;;;2096148;28;20220;-68
2023/04/05 03:54:02;;;;;;;4.40;4.00;;;;;18.80;101180.00;;;;2095455;28;20269;-68
2023/04/05 03:55:03;;;;;;;3.30;3.00;;;;;18.80;101176.00;;;;2095792;28;20216;-69
2023/04/05 03:56:03;;;;;;;5.20;3.80;;;;;18.80;101183.00;;;;2095055;28;20460;-69
2023/04/05 03:57:04;;;;;;;4.13;3.73;;;;;18.80;101146.00;;;;2096085;28;20659;-68
2023/04/05 03:58:05;;;;;;;4.50;4.10;;;;;18.80;101178.00;;;;2094500;28;20683;-68
2023/04/05 03:59:05;;;;;;;3.90;3.13;;;;;18.80;101182.00;;;;2094973;28;20277;-68
2023/04/05 04:00:13;;;;;;;3.73;3.40;;;;;18.80;101175.00;;;;2096322;28;20243;-68
2023/04/05 04:01:14;;;;;;;4.20;3.70;;;;;18.80;101176.00;;;;2094969;28;20243;-69
2023/04/05 04:02:14;;;;;;;5.32;3.90;;;;;18.80;101178.00;;;;2095643;28;20204;-69
2023/04/05 04:03:15;;;;;;;3.87;3.47;;;;;18.80;101178.00;;;;2096259;28;20235;-68
2023/04/05 04:04:15;;;;;;;4.63;3.77;;;;;18.70;101181.00;;;;2095128;28;20203;-68
2023/04/05 04:05:16;;;;;;;4.30;3.23;;;;;18.70;101178.00;;;;2096322;28;20219;-69
2023/04/05 04:06:17;;;;;;;4.33;3.83;;;;;18.70;101183.00;;;;2096136;28;20212;-70
2023/04/05 04:07:17;;;;;;;4.15;3.72;;;;;18.70;101190.00;;;;2094401;28;20208;-69
2023/04/05 04:08:17;;;;;;;4.00;3.60;;;;;18.80;101191.00;;;;2096145;28;20209;-69
2023/04/05 04:09:18;;;;;;;3.53;3.23;;;;;18.80;101186.00;;;;2095375;28;20204;-69
2023/04/05 04:10:18;;;;;;;3.73;3.33;;;;;18.80;101180.00;;;;2096189;28;20243;-69
2023/04/05 04:11:18;;;;;;;4.03;3.50;;;;;18.70;101178.00;;;;2095280;28;20211;-68
2023/04/05 04:12:19;;;;;;;3.90;3.50;;;;;18.80;101177.00;;;;2095689;28;20215;-68
2023/04/05 04:13:19;;;;;;;5.13;3.90;;;;;18.70;101178.00;;;;2095714;28;20244;-69
2023/04/05 04:14:19;;;;;;;4.90;4.03;;;;;18.80;101196.00;;;;2099900;28;20711;-69
2023/04/05 04:15:20;;;;;;;4.17;3.80;;;;;18.70;101182.00;;;;2095524;28;20554;-69
2023/04/05 04:16:20;;;;;;;3.73;3.43;;;;;18.70;101172.00;;;;2095321;28;20685;-68
2023/04/05 04:17:27;;;;;;;4.73;3.67;;;;;18.80;101186.00;;;;2096057;28;20687;-68
2023/04/05 04:18:28;;;;;;;4.57;4.10;;;;;18.70;101183.00;;;;2095139;28;20794;-68
2023/04/05 04:19:28;;;;;;;4.90;4.30;;;;;18.70;101180.00;;;;2096031;28;20210;-68
2023/04/05 04:20:29;;;;;;;4.37;3.83;;;;;18.70;101196.00;;;;2095546;28;20235;-68
2023/04/05 04:21:31;;;;;;;4.00;3.60;;;;;18.70;101172.00;;;;2104202;28;20625;-69
2023/04/05 04:22:37;;;;;;;4.03;3.50;;;;;18.70;101177.00;;;;2103498;28;20211;-69
2023/04/05 04:23:38;;;;;;;3.90;3.30;;;;;18.70;101181.00;;;;2094982;28;20215;-69
2023/04/05 04:24:39;;;;;;;3.92;3.58;;;;;18.70;101183.00;;;;2096171;28;20220;-68
2023/04/05 04:25:40;;;;;;;4.33;3.87;;;;;18.70;101181.00;;;;2095198;28;20219;-68
2023/04/05 04:26:41;;;;;;;4.90;4.00;;;;;18.70;101180.00;;;;2096141;28;20207;-68
2023/04/05 04:27:42;;;;;;;4.00;3.60;;;;;18.70;101173.00;;;;2094814;28;20575;-70
2023/04/05 04:28:42;;;;;;;4.43;3.80;;;;;18.70;101185.00;;;;2096031;28;20572;-68
2023/04/05 04:29:45;;;;;;;4.57;4.10;;;;;18.70;101178.00;;;;2095689;28;20208;-68
2023/04/05 04:30:45;;;;;;;3.95;3.55;;;;;18.70;101182.00;;;;2098911;28;20556;-68
2023/04/05 04:31:47;;;;;;;4.43;4.03;;;;;18.70;101174.00;;;;2095599;28;20701;-69
2023/04/05 04:32:53;;;;;;;4.25;3.85;;;;;18.70;101181.00;;;;2095204;28;20316;-69
2023/04/05 04:33:54;;;;;;;3.78;3.28;;;;;18.70;101175.00;;;;2095822;28;20699;-68
2023/04/05 04:34:54;;;;;;;4.07;3.67;;;;;18.70;101175.00;;;;2097785;28;20218;-69
2023/04/05 04:35:55;;;;;;;4.23;3.83;;;;;18.70;101185.00;;;;2099067;28;20215;-68
2023/04/05 04:37:00;;;;;;;3.83;3.50;;;;;18.60;101177.00;;;;2095082;28;20365;-69
2023/04/05 04:38:01;;;;;;;3.60;3.30;;;;;18.70;101174.00;;;;2089493;28;20224;-69
2023/04/05 04:39:04;;;;;;;4.65;4.20;;;;;18.70;101175.00;;;;2095237;28;20725;-69
2023/04/05 04:40:07;;;;;;;4.68;3.60;;;;;18.70;101172.00;;;;2095510;28;20295;-68
2023/04/05 04:41:09;;;;;;;5.85;4.03;;;;;18.60;101174.00;;;;2095860;28;20208;-69
2023/04/05 04:42:10;;;;;;;4.65;3.75;;;;;18.70;101181.00;;;;2094847;28;20218;-69
2023/04/05 04:43:17;;;;;;;3.97;3.58;;;;;18.70;101179.00;;;;2095817;28;20228;-68
2023/04/05 04:44:27;;;;;;;4.93;4.35;;;;;18.60;101184.00;;;;2094991;28;20208;-69
2023/04/05 04:45:33;;;;;;;4.63;3.53;;;;;18.60;101180.00;;;;2095942;28;20212;-69
2023/04/05 04:46:41;;;;;;;6.47;4.72;;;;;18.60;101178.00;;;;2093969;28;20337;-68
2023/04/05 04:47:42;;;;;;;4.97;3.88;;;;;18.70;101176.00;;;;2088497;28;20294;-68
2023/04/05 04:48:42;;;;;;;4.70;3.97;;;;;18.60;101172.00;;;;2094571;28;20696;-69
2023/04/05 04:49:43;;;;;;;4.57;3.60;;;;;18.70;101183.00;;;;2096010;28;20469;-70
2023/04/05 04:50:44;;;;;;;4.63;3.60;;;;;18.60;101169.00;;;;2095316;28;20279;-68
2023/04/05 04:51:44;;;;;;;5.18;3.83;;;;;18.70;101180.00;;;;2093652;28;20311;-67
2023/04/05 04:52:45;;;;;;;4.17;3.47;;;;;18.70;101178.00;;;;2095342;28;20670;-67
2023/04/05 04:53:45;;;;;;;6.07;3.73;;;;;18.70;101179.00;;;;2097772;28;20941;-68
2023/04/05 04:54:46;;;;;;;4.43;3.93;;;;;18.60;101181.00;;;;2097501;28;20219;-67
2023/04/05 04:55:49;;;;;;;5.63;4.40;;;;;18.60;101178.00;;;;2096723;28;20219;-67
2023/04/05 04:56:49;;;;;;;4.30;3.90;;;;;18.60;101179.00;;;;2097524;28;20208;-67
2023/04/05 04:57:50;;;;;;;4.60;4.20;;;;;18.50;101179.00;;;;2097522;28;20243;-68
2023/04/05 04:58:56;;;;;;;5.65;4.43;;;;;18.50;101169.00;;;;2096069;28;20589;-68
2023/04/05 04:59:57;;;;;;;4.85;4.05;;;;;18.50;101167.00;;;;2092555;28;20222;-66
2023/04/05 05:00:58;;;;;;;4.97;4.20;;;;;18.50;101178.00;;;;2099839;28;20619;-68
2023/04/05 05:01:58;;;;;;;5.05;4.38;;;;;18.50;101176.00;;;;2099243;28;20215;-67
2023/04/05 05:02:58;;;;;;;6.40;5.00;;;;;18.50;101181.00;;;;2097530;28;20564;-67
2023/04/05 05:03:59;;;;;;;19.83;4.33;;;;;18.50;101166.00;;;;2096535;28;20572;-66
2023/04/05 05:04:59;;;;;;;6.40;4.27;;;;;18.50;101179.00;;;;2097565;28;20671;-67